Latest Coastal Weather Observations for Cape Ferguson

IDQ60701

Issued at 2:01 pm EST Thursday 18 December 2014 (issued every 10 minutes, with the page automatically refreshed every 10 minutes)

About coastal observations | Map of coastal stations | Coastal observations for QLD | Marine services | Other Formats
Station Details ID: 032182 Name: CAPE FERGUSON NTC AWS Lat: -19.28 Lon: 147.06 Height: 0.0 m
Data from the previous 72 hours. | See also: Recent months for locations in Queensland
Date/Time
EST
Temp

°C
Wind Pressure Rain
since 9am
mm
Weather Cloud Vis
km
Sea
Height
m
Swell
Dir
 
Speed
knots
Gust
knots
hPa Trend Height
m
Period
s
Dir
18/02:00pm 28.9 NE 5 13 1010.1 - - - - - - - - -
18/01:30pm 28.8 ENE 3 9 1010.3 - - - - - - - - -
18/01:00pm 29.4 E 5 13 1010.4 - - - - - - - - -
18/12:30pm 29.1 ENE 4 12 1010.8 - - - - - - - - -
18/12:00pm 28.8 NE 7 14 1011.2 - - - - - - - - -
18/11:30am 29.2 ENE 3 11 1011.4 - - - - - - - - -
18/11:00am 29.2 NE 5 12 1011.6 - - - - - - - - -
18/10:30am 28.9 ENE 5 12 1011.7 - - - - - - - - -
18/10:00am 28.8 W 3 9 1011.7 - - - - - - - - -
18/09:30am 28.6 WNW 4 11 1011.8 - - - - - - - - -
18/09:00am 28.5 W 4 13 1011.8 - - - - - - - - -
18/08:30am 28.3 NNW 4 13 1011.7 - - - - - - - - -
18/08:00am 28.3 NW 7 14 1011.7 - - - - - - - - -
18/07:30am 27.9 WNW 6 13 1011.5 - - - - - - - - -
18/07:00am 27.7 NW 5 10 1011.2 - - - - - - - - -
18/06:30am 27.4 NW 4 9 1010.8 - - - - - - - - -
18/06:00am 27.0 NW 5 8 1010.3 - - - - - - - - -
18/05:30am 26.9 NW 5 8 1009.8 - - - - - - - - -
18/05:00am 26.9 NW 5 9 1009.4 - - - - - - - - -
18/04:30am 26.9 NW 5 7 1009.1 - - - - - - - - -
18/04:00am 26.9 NW 5 9 1008.9 - - - - - - - - -
18/03:30am 27.1 NW 5 8 1008.6 - - - - - - - - -
18/03:00am 27.1 NW 5 10 1008.7 - - - - - - - - -
18/02:30am 27.1 NW 4 9 1008.7 - - - - - - - - -
18/02:00am 27.1 NW 4 7 1009.1 - - - - - - - - -
18/01:30am 26.9 NW 5 7 1009.2 - - - - - - - - -
18/01:00am 27.4 NNW 5 9 1009.2 - - - - - - - - -
18/12:30am 27.5 NNW 4 7 1009.4 - - - - - - - - -
18/12:00am 27.5 NW 5 8 1009.9 - - - - - - - - -
 
Date/Time
EST
Temp

°C
Wind Pressure Rain
since 9am
mm
Weather Cloud Vis
km
Sea
Height
m
Swell
Dir
 
Speed
knots
Gust
knots
hPa Trend Height
m
Period
s
Dir
17/11:30pm 27.6 NW 5 7 1010.0 - - - - - - - - -
17/11:00pm 27.8 NW 4 7 1010.2 - - - - - - - - -
17/10:30pm 27.9 NW 5 8 1010.1 - - - - - - - - -
17/10:00pm 27.9 WNW 5 10 1010.0 - - - - - - - - -
17/09:30pm 28.0 W 3 7 1009.6 - - - - - - - - -
17/09:00pm 28.0 W 3 9 1009.2 - - - - - - - - -
17/08:30pm 28.1 WNW 4 9 1008.7 - - - - - - - - -
17/08:00pm 28.3 SW 3 7 1008.6 - - - - - - - - -
17/07:30pm 28.3 NNW 3 9 1008.4 - - - - - - - - -
17/07:00pm 28.4 NNW 3 8 1008.1 - - - - - - - - -
17/06:30pm 28.6 NW 3 9 1007.9 - - - - - - - - -
17/06:00pm 28.9 NNW 2 8 1007.4 - - - - - - - - -
17/05:30pm 28.9 WNW 4 11 1007.0 - - - - - - - - -
17/05:00pm 29.2 W 5 11 1006.4 - - - - - - - - -
17/04:30pm 29.1 SW 4 11 1006.3 - - - - - - - - -
17/04:00pm 29.4 ENE 6 13 1006.6 - - - - - - - - -
17/03:30pm 29.3 E 4 12 1006.8 - - - - - - - - -
17/03:00pm 29.4 E 5 15 1007.0 - - - - - - - - -
17/02:30pm 29.4 ENE 5 12 1007.2 - - - - - - - - -
17/02:00pm 29.5 ENE 5 13 1007.6 - - - - - - - - -
17/01:30pm 29.6 NE 3 10 1007.9 - - - - - - - - -
17/01:00pm 29.8 SW 3 9 1008.2 - - - - - - - - -
17/12:30pm 29.6 WNW 6 16 1008.7 - - - - - - - - -
17/12:00pm 29.8 WNW 6 13 1009.0 - - - - - - - - -
17/11:30am 29.7 WNW 8 15 1009.2 - - - - - - - - -
17/11:00am 29.7 WNW 8 13 1009.6 - - - - - - - - -
17/10:30am 29.9 NNW 7 13 1009.7 - - - - - - - - -
17/10:00am 29.3 WNW 8 14 1009.9 - - - - - - - - -
17/09:30am 29.1 WNW 9 15 1009.9 - - - - - - - - -
17/09:00am 29.2 NNE 3 10 1009.7 - - - - - - - - -
17/08:30am 29.0 WNW 2 11 1009.5 - - - - - - - - -
17/08:00am 28.7 NW 4 8 1009.5 - - - - - - - - -
17/07:30am 28.8 N 3 7 1009.5 - - - - - - - - -
17/07:00am 28.1 NNW 5 9 1009.3 - - - - - - - - -
17/06:30am 27.8 NNW 4 8 1009.0 - - - - - - - - -
17/06:00am 27.3 NW 4 7 1008.5 - - - - - - - - -
17/05:30am 27.2 NW 4 7 1008.2 - - - - - - - - -
17/05:00am 27.2 NNW 3 6 1007.7 - - - - - - - - -
17/04:30am 27.2 NNW 5 8 1007.4 - - - - - - - - -
17/04:00am 27.2 NNW 4 8 1007.2 - - - - - - - - -
17/03:30am 27.3 NNW 4 8 1007.1 - - - - - - - - -
17/03:00am 27.2 NW 5 10 1007.3 - - - - - - - - -
17/02:30am 27.2 NW 4 6 1007.4 - - - - - - - - -
17/02:00am 27.4 NNW 4 6 1007.4 - - - - - - - - -
17/01:30am 26.7 NW 3 5 1007.8 - - - - - - - - -
17/01:00am 27.4 NW 2 5 1008.1 - - - - - - - - -
17/12:30am 27.4 NNW 4 6 1008.4 - - - - - - - - -
17/12:00am 27.5 NNW 3 5 1008.7 - - - - - - - - -
 
Date/Time
EST
Temp

°C
Wind Pressure Rain
since 9am
mm
Weather Cloud Vis
km
Sea
Height
m
Swell
Dir
 
Speed
knots
Gust
knots
hPa Trend Height
m
Period
s
Dir
16/11:30pm 27.3 NNW 2 4 1009.0 - - - - - - - - -
16/11:00pm 27.6 NW 4 6 1009.3 - - - - - - - - -
16/10:30pm 27.5 NW 3 4 1009.4 - - - - - - - - -
16/10:00pm 27.7 NW 4 7 1009.3 - - - - - - - - -
16/09:30pm 27.9 NW 4 6 1009.3 - - - - - - - - -
16/09:00pm 27.9 NW 4 8 1009.2 - - - - - - - - -
16/08:30pm 27.9 NW 5 8 1009.0 - - - - - - - - -
16/08:00pm 28.1 WNW 4 11 1008.9 - - - - - - - - -
16/07:30pm 28.2 WNW 3 8 1008.7 - - - - - - - - -
16/07:00pm 28.3 WNW 3 7 1008.4 - - - - - - - - -
16/06:30pm 28.6 E 3 7 1008.1 - - - - - - - - -
16/06:00pm 28.8 E 4 12 1007.9 - - - - - - - - -
16/05:30pm 28.9 NE 5 11 1007.8 - - - - - - - - -
16/05:00pm 29.0 ENE 4 14 1007.6 - - - - - - - - -
16/04:30pm 29.1 NE 4 13 1007.5 - - - - - - - - -
16/04:00pm 28.8 NE 6 12 1007.4 - - - - - - - - -
16/03:30pm 28.9 NE 7 16 1007.5 - - - - - - - - -
16/03:00pm 29.4 ENE 5 14 1007.9 - - - - - - - - -
16/02:30pm 29.3 ENE 6 14 1008.4 - - - - - - - - -
16/02:00pm 29.3 ENE 7 15 1008.8 - - - - - - - - -
16/01:30pm 29.2 ENE 7 15 1009.1 - - - - - - - - -
16/01:00pm 29.1 NE 7 15 1009.6 - - - - - - - - -
16/12:30pm 29.3 NE 7 13 1010.0 - - - - - - - - -
16/12:00pm 29.4 NE 6 12 1010.4 - - - - - - - - -
16/11:30am 28.9 NE 7 15 1010.8 - - - - - - - - -
16/11:00am 28.6 NE 6 12 1011.0 - - - - - - - - -
16/10:30am 28.8 ENE 6 11 1011.3 - - - - - - - - -
16/10:00am 28.3 NE 6 12 1011.5 - - - - - - - - -
16/09:30am 28.4 ENE 6 10 1011.7 - - - - - - - - -
16/09:00am 28.4 ENE 5 8 1011.8 - - - - - - - - -
16/08:30am 28.0 ENE 5 9 1011.6 - - - - - - - - -
16/08:00am 27.9 NE 5 8 1011.4 - - - - - - - - -
16/07:30am 28.0 NE 4 7 1011.2 - - - - - - - - -
16/07:00am 27.8 ENE 4 8 1011.0 - - - - - - - - -
16/06:30am 27.6 ENE 4 7 1010.5 - - - - - - - - -
16/06:00am 27.5 NE 3 6 1010.0 - - - - - - - - -
16/05:30am 27.3 NE 2 5 1009.4 - - - - - - - - -
16/05:00am 27.3 NE 3 5 1009.0 - - - - - - - - -
16/04:30am 27.4 ENE 4 7 1008.7 - - - - - - - - -
16/04:00am 27.4 ENE 3 6 1008.7 - - - - - - - - -
16/03:30am 27.4 ENE 4 7 1008.7 - - - - - - - - -
16/03:00am 27.5 NE 4 9 1008.7 - - - - - - - - -
16/02:30am 27.6 ENE 5 11 1008.6 - - - - - - - - -
16/02:00am 27.6 ENE 7 12 1008.8 - - - - - - - - -
16/01:30am 27.7 ENE 8 11 1009.2 - - - - - - - - -
16/01:00am 27.7 ENE 7 10 1009.5 - - - - - - - - -
16/12:30am 27.6 ENE 5 8 1009.8 - - - - - - - - -
16/12:00am 27.8 NE 5 8 1010.2 - - - - - - - - -
 
Date/Time
EST
Temp

°C
Wind Pressure Rain
since 9am
mm
Weather Cloud Vis
km
Sea
Height
m
Swell
Dir
 
Speed
knots
Gust
knots
hPa Trend Height
m
Period
s
Dir
15/11:30pm 27.8 ENE 5 10 1010.4 - - - - - - - - -
15/11:00pm 27.9 ENE 4 8 1010.7 - - - - - - - - -
15/10:30pm 27.9 E 3 7 1011.0 - - - - - - - - -
15/10:00pm 28.0 ENE 3 10 1010.8 - - - - - - - - -
15/09:30pm 28.0 SW 2 7 1010.4 - - - - - - - - -
15/09:00pm 28.0 ENE 3 8 1010.1 - - - - - - - - -
15/08:30pm 28.0 NE 3 10 1009.7 - - - - - - - - -
15/08:00pm 28.1 ENE 3 8 1009.5 - - - - - - - - -
15/07:30pm 28.1 E 3 7 1009.2 - - - - - - - - -
15/07:00pm 28.1 ESE 3 9 1008.8 - - - - - - - - -
15/06:30pm 28.4 ENE 4 12 1008.4 - - - - - - - - -
15/06:00pm 28.4 E 4 11 1008.1 - - - - - - - - -
15/05:30pm 28.4 ENE 6 13 1007.9 - - - - - - - - -
15/05:00pm 28.6 ENE 7 13 1007.6 - - - - - - - - -
15/04:30pm 28.8 ENE 5 11 1007.4 - - - - - - - - -
15/04:00pm 28.6 NE 7 13 1007.4 - - - - - - - - -
15/03:30pm 28.5 ENE 8 15 1007.5 - - - - - - - - -
15/03:00pm 28.8 NE 6 14 1007.8 - - - - - - - - -
15/02:30pm 29.2 ENE 6 15 1008.0 - - - - - - - - -

Other Formats:

Comma delimited format used in spreadsheet applications
http://www.bom.gov.au/fwo/IDQ60701/IDQ60701.94297.axf

JavaScript Object Notation format (JSON) in row-major order
http://www.bom.gov.au/fwo/IDQ60701/IDQ60701.94297.json